createdAt,value
2019-02-10T00:05:02.905Z,6.18
2019-02-10T00:10:10.432Z,6.10
2019-02-10T00:15:18.635Z,6.28
2019-02-10T00:20:24.692Z,6.19
2019-02-10T00:25:30.420Z,6.08
2019-02-10T00:30:40.286Z,5.99
2019-02-10T00:35:46.085Z,6.17
2019-02-10T00:40:54.704Z,6.09
2019-02-10T00:46:00.569Z,6.03
2019-02-10T00:51:06.668Z,6.17
2019-02-10T00:56:14.907Z,6.12
2019-02-10T01:01:25.800Z,6.04
2019-02-10T01:06:41.182Z,5.92
2019-02-10T01:11:41.586Z,6.11
2019-02-10T01:16:47.398Z,5.96
2019-02-10T01:21:53.798Z,6.18
2019-02-10T01:27:02.580Z,6.08
2019-02-10T01:32:10.029Z,5.98
2019-02-10T01:37:19.227Z,6.10
2019-02-10T01:42:27.912Z,6.04
2019-02-10T01:47:33.613Z,5.97
2019-02-10T01:52:41.779Z,6.00
2019-02-10T01:57:47.530Z,5.95
2019-02-10T02:02:53.296Z,5.93
2019-02-10T02:07:59.898Z,5.87
2019-02-10T02:13:09.759Z,6.17
2019-02-10T02:18:15.500Z,5.82
2019-02-10T02:23:21.755Z,5.82
2019-02-10T02:28:28.769Z,5.80
2019-02-10T02:33:34.537Z,6.03
2019-02-10T02:38:44.470Z,5.93
2019-02-10T02:43:52.186Z,5.76
2019-02-10T02:49:00.890Z,5.58
2019-02-10T02:54:08.209Z,5.75
2019-02-10T02:59:13.911Z,5.63
2019-02-10T03:04:19.524Z,5.74
2019-02-10T03:09:25.617Z,5.74
2019-02-10T03:14:32.582Z,5.70
2019-02-10T03:19:39.823Z,5.84
2019-02-10T03:24:46.002Z,5.91
2019-02-10T03:29:51.598Z,5.71
2019-02-10T03:34:57.301Z,5.94
2019-02-10T03:40:03.312Z,5.73
2019-02-10T03:45:09.715Z,5.85
2019-02-10T03:50:18.412Z,5.80
2019-02-10T03:55:28.827Z,5.75
2019-02-10T04:00:38.836Z,6.18
2019-02-10T04:05:44.472Z,5.86
2019-02-10T04:10:51.800Z,6.03
2019-02-10T04:15:59.484Z,6.00
2019-02-10T04:21:06.836Z,5.80
2019-02-10T04:26:13.421Z,5.92
2019-02-10T04:31:19.135Z,5.71
2019-02-10T04:36:25.150Z,5.65
2019-02-10T04:41:30.700Z,5.69
2019-02-10T04:46:36.938Z,5.60
2019-02-10T04:51:50.305Z,5.79
2019-02-10T04:56:58.851Z,5.94
2019-02-10T05:02:06.303Z,5.69
2019-02-10T05:07:11.959Z,5.66
2019-02-10T05:12:17.792Z,5.66
2019-02-10T05:17:23.456Z,5.44
2019-02-10T05:22:30.151Z,5.44
2019-02-10T05:27:36.300Z,5.65
2019-02-10T05:32:42.437Z,5.59
2019-02-10T05:37:50.558Z,5.59
2019-02-10T05:42:59.638Z,5.62
2019-02-10T05:48:07.645Z,5.56
2019-02-10T05:53:13.287Z,5.83
2019-02-10T05:58:21.064Z,5.73
2019-02-10T06:03:30.692Z,5.51
2019-02-10T06:08:41.462Z,5.54
2019-02-10T06:13:47.523Z,5.72
2019-02-10T06:18:53.369Z,5.37
2019-02-10T06:23:59.779Z,5.53
2019-02-10T06:29:08.054Z,5.21
2019-02-10T06:34:21.237Z,5.53
2019-02-10T06:39:28.069Z,5.93
2019-02-10T06:44:33.843Z,5.79
2019-02-10T06:49:40.097Z,6.15
2019-02-10T06:54:54.767Z,6.21
2019-02-10T07:00:22.803Z,6.20
2019-02-10T07:05:26.786Z,6.36
2019-02-10T07:10:35.237Z,6.24
2019-02-10T07:16:16.090Z,6.25
2019-02-10T07:21:26.470Z,6.61
2019-02-10T07:27:16.985Z,6.93
2019-02-10T07:32:34.812Z,6.94
2019-02-10T07:37:53.940Z,6.91
2019-02-10T07:43:55.944Z,6.80
2019-02-10T07:49:47.296Z,7.14
2019-02-10T07:55:17.143Z,7.03
2019-02-10T08:01:04.700Z,6.97
2019-02-10T08:06:42.647Z,7.21
2019-02-10T08:12:35.941Z,7.25
2019-02-10T08:18:21.603Z,7.23
2019-02-10T08:23:59.550Z,7.25
2019-02-10T08:29:43.790Z,7.35
2019-02-10T08:35:23.106Z,7.22
2019-02-10T08:41:08.567Z,7.29
2019-02-10T08:46:27.420Z,7.57
2019-02-10T08:52:13.047Z,7.78
2019-02-10T08:57:22.085Z,7.94
2019-02-10T09:02:32.663Z,7.88
2019-02-10T09:07:38.720Z,8.08
2019-02-10T09:12:45.969Z,8.40
2019-02-10T09:17:55.909Z,8.40
2019-02-10T09:23:03.722Z,8.24
2019-02-10T09:28:14.036Z,8.43
2019-02-10T09:38:56.803Z,8.34
2019-02-10T09:44:08.240Z,8.43
2019-02-10T09:49:21.012Z,8.42
2019-02-10T09:54:34.566Z,8.35
2019-02-10T09:59:48.921Z,8.47
2019-02-10T10:05:13.175Z,8.68
2019-02-10T10:10:22.067Z,8.51
2019-02-10T10:15:36.607Z,8.61
2019-02-10T10:20:44.537Z,8.68
2019-02-10T10:25:58.185Z,8.52
2019-02-10T10:31:11.952Z,8.80
2019-02-10T10:36:19.105Z,8.94
2019-02-10T10:41:49.048Z,8.84
2019-02-10T10:47:13.520Z,9.06
2019-02-10T10:52:25.188Z,9.30
2019-02-10T10:57:40.129Z,9.24
2019-02-10T11:02:50.614Z,9.41
2019-02-10T11:08:02.879Z,9.16
2019-02-10T11:18:36.038Z,8.96
2019-02-10T11:23:54.227Z,8.89
2019-02-10T11:29:06.931Z,8.71
2019-02-10T11:34:17.980Z,8.77
2019-02-10T11:39:29.615Z,8.84
2019-02-10T11:44:53.185Z,8.81
2019-02-10T11:50:08.735Z,9.07
2019-02-10T11:55:22.190Z,8.79
2019-02-10T12:00:33.502Z,8.79
2019-02-10T12:06:00.577Z,8.74
2019-02-10T12:11:12.268Z,8.51
2019-02-10T12:16:36.286Z,8.35
2019-02-10T12:27:02.298Z,8.53
2019-02-10T12:32:18.599Z,8.66
2019-02-10T12:37:32.584Z,8.54
2019-02-10T12:42:35.829Z,8.53
2019-02-10T12:47:45.950Z,8.55
2019-02-10T12:53:00.335Z,8.89
2019-02-10T12:58:09.629Z,8.87
2019-02-10T13:03:23.551Z,8.87
2019-02-10T13:08:29.788Z,9.25
2019-02-10T13:13:43.420Z,9.19
2019-02-10T13:18:55.027Z,9.31
2019-02-10T13:24:06.405Z,9.22
2019-02-10T13:29:19.749Z,9.26
2019-02-10T13:34:29.030Z,9.39
2019-02-10T13:39:38.210Z,9.49
2019-02-10T13:44:44.366Z,9.55
2019-02-10T13:49:55.590Z,9.73
2019-02-10T13:55:01.651Z,9.91
2019-02-10T14:00:10.700Z,9.97
2019-02-10T14:05:25.085Z,9.92
2019-02-10T14:10:37.006Z,10.04
2019-02-10T14:15:52.928Z,9.90
2019-02-10T14:21:18.195Z,10.13
2019-02-10T14:26:34.042Z,10.21
2019-02-10T14:31:44.750Z,10.13
2019-02-10T14:36:56.177Z,9.98
2019-02-10T14:42:22.154Z,9.90
2019-02-10T14:47:37.011Z,9.80
2019-02-10T14:53:16.680Z,9.63
2019-02-10T14:58:24.873Z,9.97
2019-02-10T15:03:44.427Z,10.02
2019-02-10T15:08:55.485Z,9.98
2019-02-10T15:14:24.082Z,10.00
2019-02-10T15:19:41.939Z,9.99
2019-02-10T15:25:10.287Z,10.12
2019-02-10T15:30:23.895Z,9.91
2019-02-10T15:35:48.025Z,10.08
2019-02-10T15:40:58.248Z,9.90
2019-02-10T15:46:09.250Z,9.91
2019-02-10T15:51:28.781Z,10.02
2019-02-10T15:56:45.050Z,10.09
2019-02-10T16:02:00.996Z,9.96
2019-02-10T16:13:07.095Z,9.73
2019-02-10T16:18:20.191Z,9.85
2019-02-10T16:23:29.963Z,10.01
2019-02-10T16:28:39.129Z,9.68
2019-02-10T16:33:53.190Z,9.72
2019-02-10T16:39:13.156Z,9.80
2019-02-10T16:44:33.802Z,9.91
2019-02-10T16:49:46.114Z,9.77
2019-02-10T16:54:55.567Z,9.87
2019-02-10T17:00:06.818Z,9.72
2019-02-10T17:05:28.194Z,9.98
2019-02-10T17:10:37.141Z,9.98
2019-02-10T17:16:05.231Z,9.76
2019-02-10T17:21:15.834Z,9.76
2019-02-10T17:26:32.561Z,9.94
2019-02-10T17:31:56.984Z,9.96
2019-02-10T17:37:09.913Z,9.98
2019-02-10T17:42:32.274Z,10.23
2019-02-10T17:47:44.966Z,10.09
2019-02-10T17:52:59.682Z,10.06
2019-02-10T17:58:15.473Z,9.90
2019-02-10T18:03:25.012Z,9.95
2019-02-10T18:08:37.993Z,9.82
2019-02-10T18:14:02.351Z,9.81
2019-02-10T18:19:29.654Z,9.60
2019-02-10T18:25:05.855Z,9.47
2019-02-10T18:30:51.450Z,9.39
2019-02-10T18:36:28.418Z,9.44
2019-02-10T18:42:07.123Z,9.13
2019-02-10T18:47:44.291Z,8.98
2019-02-10T18:53:22.535Z,8.96
2019-02-10T18:59:05.062Z,9.11
2019-02-10T19:04:32.571Z,8.81
2019-02-10T19:10:15.351Z,8.75
2019-02-10T19:15:59.944Z,8.68
2019-02-10T19:21:44.670Z,8.52
2019-02-10T19:27:29.777Z,8.69
2019-02-10T19:33:21.663Z,8.53
2019-02-10T19:38:57.998Z,8.63
2019-02-10T19:44:45.092Z,8.57
2019-02-10T19:50:27.946Z,8.57
2019-02-10T19:56:11.654Z,8.57
2019-02-10T20:02:05.239Z,8.51
2019-02-10T20:07:31.013Z,8.49
2019-02-10T20:13:00.686Z,8.55
2019-02-10T20:18:19.679Z,8.69
2019-02-10T20:24:04.103Z,8.65
2019-02-10T20:29:59.376Z,8.95
2019-02-10T20:35:26.747Z,8.63
2019-02-10T20:41:03.531Z,8.63
2019-02-10T20:46:37.232Z,8.68
2019-02-10T20:52:04.481Z,8.64
2019-02-10T20:57:42.624Z,8.52
2019-02-10T21:03:06.636Z,8.52
2019-02-10T21:08:32.208Z,8.42
2019-02-10T21:14:01.259Z,8.44
2019-02-10T21:19:19.006Z,8.27
2019-02-10T21:24:57.379Z,8.21
2019-02-10T21:30:15.984Z,8.06
2019-02-10T21:35:40.626Z,7.98
2019-02-10T21:41:11.356Z,7.93
2019-02-10T21:46:36.474Z,7.93
2019-02-10T21:51:45.981Z,8.06
2019-02-10T21:57:00.059Z,7.94
2019-02-10T22:02:11.337Z,7.92
2019-02-10T22:07:21.443Z,7.71
2019-02-10T22:12:37.109Z,7.62
2019-02-10T22:17:41.406Z,7.45
2019-02-10T22:22:47.219Z,7.29
2019-02-10T22:27:53.107Z,7.39
2019-02-10T22:33:00.440Z,7.41
2019-02-10T22:38:08.814Z,7.50
2019-02-10T22:43:14.797Z,7.29
2019-02-10T22:48:20.653Z,7.34
2019-02-10T22:53:30.723Z,7.23
2019-02-10T22:58:43.780Z,7.20
2019-02-10T23:03:49.684Z,7.04
2019-02-10T23:08:59.656Z,7.01
2019-02-10T23:14:06.156Z,6.80
2019-02-10T23:19:13.167Z,6.77
2019-02-10T23:24:18.955Z,6.61
2019-02-10T23:29:37.300Z,6.67
2019-02-10T23:34:48.557Z,6.68
2019-02-10T23:39:59.281Z,6.61
2019-02-10T23:45:06.507Z,6.59
2019-02-10T23:56:36.051Z,6.54
